sensor_id;sensor_type;location;lat;lon;timestamp;P1;durP1;ratioP1;P2;durP2;ratioP2
15899;SDS011;8048;50.644;6.184;2022-12-18T00:00:41;0.63;;;0.63;;
15899;SDS011;8048;50.644;6.184;2022-12-18T00:03:07;0.60;;;0.60;;
15899;SDS011;8048;50.644;6.184;2022-12-18T00:05:33;0.90;;;0.60;;
15899;SDS011;8048;50.644;6.184;2022-12-18T00:07:58;0.60;;;0.60;;
15899;SDS011;8048;50.644;6.184;2022-12-18T00:10:24;0.73;;;0.73;;
15899;SDS011;8048;50.644;6.184;2022-12-18T00:12:49;0.50;;;0.50;;
15899;SDS011;8048;50.644;6.184;2022-12-18T00:15:15;1.23;;;0.60;;
15899;SDS011;8048;50.644;6.184;2022-12-18T00:17:40;0.77;;;0.77;;
15899;SDS011;8048;50.644;6.184;2022-12-18T00:20:06;0.50;;;0.50;;
15899;SDS011;8048;50.644;6.184;2022-12-18T00:22:32;1.20;;;0.75;;
15899;SDS011;8048;50.644;6.184;2022-12-18T00:24:58;1.03;;;0.80;;
15899;SDS011;8048;50.644;6.184;2022-12-18T00:27:23;1.33;;;1.23;;
15899;SDS011;8048;50.644;6.184;2022-12-18T00:29:49;1.47;;;0.93;;
15899;SDS011;8048;50.644;6.184;2022-12-18T00:32:15;0.80;;;0.80;;
15899;SDS011;8048;50.644;6.184;2022-12-18T00:34:40;0.73;;;0.73;;
15899;SDS011;8048;50.644;6.184;2022-12-18T00:37:06;0.60;;;0.60;;
15899;SDS011;8048;50.644;6.184;2022-12-18T00:39:31;0.60;;;0.60;;
15899;SDS011;8048;50.644;6.184;2022-12-18T00:41:57;0.60;;;0.60;;
15899;SDS011;8048;50.644;6.184;2022-12-18T00:44:41;0.50;;;0.50;;
15899;SDS011;8048;50.644;6.184;2022-12-18T00:47:06;0.60;;;0.60;;
15899;SDS011;8048;50.644;6.184;2022-12-18T00:49:32;13.60;;;9.67;;
15899;SDS011;8048;50.644;6.184;2022-12-18T00:51:57;0.80;;;0.80;;
15899;SDS011;8048;50.644;6.184;2022-12-18T00:54:23;0.60;;;0.60;;
15899;SDS011;8048;50.644;6.184;2022-12-18T00:56:49;0.50;;;0.50;;
15899;SDS011;8048;50.644;6.184;2022-12-18T00:59:15;0.90;;;0.90;;
15899;SDS011;8048;50.644;6.184;2022-12-18T01:01:40;1.25;;;1.15;;
15899;SDS011;8048;50.644;6.184;2022-12-18T01:04:06;2.20;;;1.23;;
15899;SDS011;8048;50.644;6.184;2022-12-18T01:06:32;0.63;;;0.63;;
15899;SDS011;8048;50.644;6.184;2022-12-18T01:08:57;1.10;;;1.10;;
15899;SDS011;8048;50.644;6.184;2022-12-18T01:11:23;0.80;;;0.80;;
15899;SDS011;8048;50.644;6.184;2022-12-18T01:13:49;1.00;;;1.00;;
15899;SDS011;8048;50.644;6.184;2022-12-18T01:16:17;0.70;;;0.70;;
15899;SDS011;8048;50.644;6.184;2022-12-18T01:18:43;1.10;;;0.73;;
15899;SDS011;8048;50.644;6.184;2022-12-18T01:21:10;0.60;;;0.60;;
15899;SDS011;8048;50.644;6.184;2022-12-18T01:23:38;1.55;;;1.23;;
15899;SDS011;8048;50.644;6.184;2022-12-18T01:26:04;1.00;;;1.00;;
15899;SDS011;8048;50.644;6.184;2022-12-18T01:28:31;1.00;;;1.00;;
15899;SDS011;8048;50.644;6.184;2022-12-18T01:30:57;5.20;;;1.77;;
15899;SDS011;8048;50.644;6.184;2022-12-18T01:33:22;1.77;;;1.67;;
15899;SDS011;8048;50.644;6.184;2022-12-18T01:35:48;1.20;;;1.15;;
15899;SDS011;8048;50.644;6.184;2022-12-18T01:38:14;2.10;;;1.77;;
15899;SDS011;8048;50.644;6.184;2022-12-18T01:40:39;1.33;;;1.23;;
15899;SDS011;8048;50.644;6.184;2022-12-18T01:43:05;0.80;;;0.80;;
15899;SDS011;8048;50.644;6.184;2022-12-18T01:45:33;0.82;;;0.82;;
15899;SDS011;8048;50.644;6.184;2022-12-18T01:47:59;0.97;;;0.93;;
15899;SDS011;8048;50.644;6.184;2022-12-18T01:50:40;1.23;;;1.17;;
15899;SDS011;8048;50.644;6.184;2022-12-18T01:53:10;1.13;;;1.13;;
15899;SDS011;8048;50.644;6.184;2022-12-18T01:55:43;1.55;;;1.45;;
15899;SDS011;8048;50.644;6.184;2022-12-18T02:01:06;1.27;;;1.17;;
15899;SDS011;8048;50.644;6.184;2022-12-18T02:03:32;0.98;;;0.90;;
15899;SDS011;8048;50.644;6.184;2022-12-18T02:06:19;1.23;;;0.90;;
15899;SDS011;8048;50.644;6.184;2022-12-18T02:16:57;0.88;;;0.77;;
15899;SDS011;8048;50.644;6.184;2022-12-18T02:22:43;1.17;;;0.98;;
15899;SDS011;8048;50.644;6.184;2022-12-18T02:27:38;0.97;;;0.97;;
15899;SDS011;8048;50.644;6.184;2022-12-18T02:30:05;0.80;;;0.80;;
15899;SDS011;8048;50.644;6.184;2022-12-18T02:32:36;0.90;;;0.90;;
15899;SDS011;8048;50.644;6.184;2022-12-18T02:35:09;0.93;;;0.75;;
15899;SDS011;8048;50.644;6.184;2022-12-18T02:37:39;1.02;;;1.02;;
15899;SDS011;8048;50.644;6.184;2022-12-18T02:40:08;0.77;;;0.77;;
15899;SDS011;8048;50.644;6.184;2022-12-18T02:42:35;1.80;;;1.70;;
15899;SDS011;8048;50.644;6.184;2022-12-18T02:45:01;1.53;;;1.07;;
15899;SDS011;8048;50.644;6.184;2022-12-18T02:47:30;1.00;;;1.00;;
15899;SDS011;8048;50.644;6.184;2022-12-18T02:52:40;1.20;;;1.10;;
15899;SDS011;8048;50.644;6.184;2022-12-18T03:00:32;0.88;;;0.88;;
15899;SDS011;8048;50.644;6.184;2022-12-18T03:03:16;1.23;;;0.95;;
15899;SDS011;8048;50.644;6.184;2022-12-18T03:05:50;1.33;;;1.23;;
15899;SDS011;8048;50.644;6.184;2022-12-18T03:08:38;0.80;;;0.80;;
15899;SDS011;8048;50.644;6.184;2022-12-18T03:11:07;1.00;;;1.00;;
15899;SDS011;8048;50.644;6.184;2022-12-18T03:13:36;2.38;;;1.30;;
15899;SDS011;8048;50.644;6.184;2022-12-18T03:16:02;2.03;;;1.30;;
15899;SDS011;8048;50.644;6.184;2022-12-18T03:18:38;1.05;;;1.00;;
15899;SDS011;8048;50.644;6.184;2022-12-18T03:21:12;1.25;;;1.20;;
15899;SDS011;8048;50.644;6.184;2022-12-18T03:23:40;1.15;;;1.15;;
15899;SDS011;8048;50.644;6.184;2022-12-18T03:26:10;2.78;;;1.20;;
15899;SDS011;8048;50.644;6.184;2022-12-18T03:28:45;1.13;;;1.10;;
15899;SDS011;8048;50.644;6.184;2022-12-18T03:31:16;1.40;;;1.30;;
15899;SDS011;8048;50.644;6.184;2022-12-18T03:33:46;1.08;;;1.08;;
15899;SDS011;8048;50.644;6.184;2022-12-18T03:36:16;3.30;;;2.22;;
15899;SDS011;8048;50.644;6.184;2022-12-18T03:38:42;1.60;;;1.50;;
15899;SDS011;8048;50.644;6.184;2022-12-18T03:41:18;1.23;;;1.13;;
15899;SDS011;8048;50.644;6.184;2022-12-18T03:44:01;1.05;;;1.05;;
15899;SDS011;8048;50.644;6.184;2022-12-18T03:49:23;1.10;;;1.10;;
15899;SDS011;8048;50.644;6.184;2022-12-18T03:52:01;2.13;;;1.25;;
15899;SDS011;8048;50.644;6.184;2022-12-18T03:54:29;1.45;;;1.35;;
15899;SDS011;8048;50.644;6.184;2022-12-18T03:57:04;1.60;;;1.48;;
15899;SDS011;8048;50.644;6.184;2022-12-18T03:59:44;0.98;;;0.98;;
15899;SDS011;8048;50.644;6.184;2022-12-18T04:02:12;1.48;;;1.38;;
15899;SDS011;8048;50.644;6.184;2022-12-18T04:04:39;1.23;;;1.23;;
15899;SDS011;8048;50.644;6.184;2022-12-18T04:07:06;2.45;;;2.00;;
15899;SDS011;8048;50.644;6.184;2022-12-18T04:09:32;1.60;;;1.50;;
15899;SDS011;8048;50.644;6.184;2022-12-18T04:12:00;1.40;;;1.05;;
15899;SDS011;8048;50.644;6.184;2022-12-18T04:14:25;3.50;;;2.30;;
15899;SDS011;8048;50.644;6.184;2022-12-18T04:16:51;1.67;;;1.50;;
15899;SDS011;8048;50.644;6.184;2022-12-18T04:19:16;1.23;;;1.23;;
15899;SDS011;8048;50.644;6.184;2022-12-18T04:21:42;3.40;;;3.10;;
15899;SDS011;8048;50.644;6.184;2022-12-18T04:24:07;2.43;;;1.73;;
15899;SDS011;8048;50.644;6.184;2022-12-18T04:26:33;1.87;;;1.77;;
15899;SDS011;8048;50.644;6.184;2022-12-18T04:28:59;0.70;;;0.70;;
15899;SDS011;8048;50.644;6.184;2022-12-18T04:31:25;0.93;;;0.93;;
15899;SDS011;8048;50.644;6.184;2022-12-18T04:33:50;3.00;;;1.30;;
15899;SDS011;8048;50.644;6.184;2022-12-18T04:36:16;1.37;;;1.37;;
15899;SDS011;8048;50.644;6.184;2022-12-18T04:38:41;1.17;;;1.17;;
15899;SDS011;8048;50.644;6.184;2022-12-18T04:41:07;1.80;;;1.17;;
15899;SDS011;8048;50.644;6.184;2022-12-18T04:43:33;2.10;;;1.07;;
15899;SDS011;8048;50.644;6.184;2022-12-18T04:46:04;2.60;;;1.13;;
15899;SDS011;8048;50.644;6.184;2022-12-18T04:48:31;0.85;;;0.77;;
15899;SDS011;8048;50.644;6.184;2022-12-18T04:50:57;1.08;;;1.02;;
15899;SDS011;8048;50.644;6.184;2022-12-18T04:53:23;0.90;;;0.90;;
15899;SDS011;8048;50.644;6.184;2022-12-18T04:55:48;1.00;;;1.00;;
15899;SDS011;8048;50.644;6.184;2022-12-18T04:58:14;1.40;;;1.30;;
15899;SDS011;8048;50.644;6.184;2022-12-18T05:00:40;3.33;;;1.30;;
15899;SDS011;8048;50.644;6.184;2022-12-18T05:03:05;1.10;;;1.10;;
15899;SDS011;8048;50.644;6.184;2022-12-18T05:05:31;1.53;;;1.43;;
15899;SDS011;8048;50.644;6.184;2022-12-18T05:07:56;1.90;;;1.50;;
15899;SDS011;8048;50.644;6.184;2022-12-18T05:10:22;1.37;;;1.10;;
15899;SDS011;8048;50.644;6.184;2022-12-18T05:12:47;2.07;;;1.83;;
15899;SDS011;8048;50.644;6.184;2022-12-18T05:15:28;1.58;;;1.48;;
15899;SDS011;8048;50.644;6.184;2022-12-18T05:17:55;3.30;;;2.05;;
15899;SDS011;8048;50.644;6.184;2022-12-18T05:20:21;5.63;;;2.25;;
15899;SDS011;8048;50.644;6.184;2022-12-18T05:22:47;1.60;;;1.40;;
15899;SDS011;8048;50.644;6.184;2022-12-18T05:25:13;3.83;;;1.90;;
15899;SDS011;8048;50.644;6.184;2022-12-18T05:27:38;1.53;;;1.20;;
15899;SDS011;8048;50.644;6.184;2022-12-18T05:30:04;1.50;;;1.40;;
15899;SDS011;8048;50.644;6.184;2022-12-18T05:32:30;1.45;;;1.35;;
15899;SDS011;8048;50.644;6.184;2022-12-18T05:34:55;1.43;;;1.33;;
15899;SDS011;8048;50.644;6.184;2022-12-18T05:37:22;1.45;;;1.38;;
15899;SDS011;8048;50.644;6.184;2022-12-18T05:39:47;1.50;;;1.40;;
15899;SDS011;8048;50.644;6.184;2022-12-18T05:42:13;1.37;;;1.20;;
15899;SDS011;8048;50.644;6.184;2022-12-18T05:44:39;1.37;;;1.27;;
15899;SDS011;8048;50.644;6.184;2022-12-18T05:47:04;1.47;;;1.37;;
15899;SDS011;8048;50.644;6.184;2022-12-18T05:49:30;1.27;;;1.17;;
15899;SDS011;8048;50.644;6.184;2022-12-18T05:51:55;3.60;;;2.00;;
15899;SDS011;8048;50.644;6.184;2022-12-18T05:54:21;1.90;;;1.77;;
15899;SDS011;8048;50.644;6.184;2022-12-18T05:56:46;1.67;;;1.20;;
15899;SDS011;8048;50.644;6.184;2022-12-18T05:59:12;2.03;;;1.93;;
15899;SDS011;8048;50.644;6.184;2022-12-18T06:01:38;2.53;;;1.50;;
15899;SDS011;8048;50.644;6.184;2022-12-18T06:04:03;1.60;;;1.50;;
15899;SDS011;8048;50.644;6.184;2022-12-18T06:06:29;1.35;;;1.13;;
15899;SDS011;8048;50.644;6.184;2022-12-18T06:08:56;2.53;;;1.63;;
15899;SDS011;8048;50.644;6.184;2022-12-18T06:11:23;1.80;;;1.63;;
15899;SDS011;8048;50.644;6.184;2022-12-18T06:13:50;2.30;;;2.05;;
15899;SDS011;8048;50.644;6.184;2022-12-18T06:16:17;2.45;;;1.45;;
15899;SDS011;8048;50.644;6.184;2022-12-18T06:18:42;1.30;;;1.20;;
15899;SDS011;8048;50.644;6.184;2022-12-18T06:21:08;1.53;;;1.20;;
15899;SDS011;8048;50.644;6.184;2022-12-18T06:23:33;1.87;;;1.77;;
15899;SDS011;8048;50.644;6.184;2022-12-18T06:26:03;1.87;;;1.77;;
15899;SDS011;8048;50.644;6.184;2022-12-18T06:28:30;2.42;;;1.90;;
15899;SDS011;8048;50.644;6.184;2022-12-18T06:30:56;2.30;;;1.47;;
15899;SDS011;8048;50.644;6.184;2022-12-18T06:33:21;2.10;;;1.83;;
15899;SDS011;8048;50.644;6.184;2022-12-18T06:35:50;1.80;;;1.70;;
15899;SDS011;8048;50.644;6.184;2022-12-18T06:38:15;1.50;;;1.40;;
15899;SDS011;8048;50.644;6.184;2022-12-18T06:40:41;2.13;;;1.90;;
15899;SDS011;8048;50.644;6.184;2022-12-18T06:43:06;2.50;;;1.93;;
15899;SDS011;8048;50.644;6.184;2022-12-18T06:45:32;3.57;;;2.87;;
15899;SDS011;8048;50.644;6.184;2022-12-18T06:47:58;2.33;;;1.60;;
15899;SDS011;8048;50.644;6.184;2022-12-18T06:50:23;1.30;;;1.20;;
15899;SDS011;8048;50.644;6.184;2022-12-18T06:52:49;1.90;;;1.80;;
15899;SDS011;8048;50.644;6.184;2022-12-18T06:55:14;2.60;;;2.10;;
15899;SDS011;8048;50.644;6.184;2022-12-18T06:57:40;1.90;;;1.60;;
15899;SDS011;8048;50.644;6.184;2022-12-18T07:00:06;2.30;;;2.10;;
15899;SDS011;8048;50.644;6.184;2022-12-18T07:02:32;2.17;;;1.95;;
15899;SDS011;8048;50.644;6.184;2022-12-18T07:04:58;1.83;;;1.73;;
15899;SDS011;8048;50.644;6.184;2022-12-18T07:07:24;1.43;;;1.33;;
15899;SDS011;8048;50.644;6.184;2022-12-18T07:09:50;0.90;;;0.90;;
15899;SDS011;8048;50.644;6.184;2022-12-18T07:12:15;2.20;;;1.87;;
15899;SDS011;8048;50.644;6.184;2022-12-18T07:14:41;1.33;;;1.23;;
15899;SDS011;8048;50.644;6.184;2022-12-18T07:17:06;2.90;;;2.47;;
15899;SDS011;8048;50.644;6.184;2022-12-18T07:19:32;1.70;;;1.60;;
15899;SDS011;8048;50.644;6.184;2022-12-18T07:21:58;2.47;;;2.08;;
15899;SDS011;8048;50.644;6.184;2022-12-18T07:24:23;2.20;;;2.10;;
15899;SDS011;8048;50.644;6.184;2022-12-18T07:26:49;3.20;;;2.57;;
15899;SDS011;8048;50.644;6.184;2022-12-18T07:29:15;1.90;;;1.53;;
15899;SDS011;8048;50.644;6.184;2022-12-18T07:31:40;1.67;;;1.20;;
15899;SDS011;8048;50.644;6.184;2022-12-18T07:34:09;2.23;;;2.13;;
15899;SDS011;8048;50.644;6.184;2022-12-18T07:36:38;1.80;;;1.70;;
15899;SDS011;8048;50.644;6.184;2022-12-18T07:39:04;2.43;;;2.23;;
15899;SDS011;8048;50.644;6.184;2022-12-18T07:41:30;2.73;;;1.93;;
15899;SDS011;8048;50.644;6.184;2022-12-18T07:43:56;3.08;;;2.08;;
15899;SDS011;8048;50.644;6.184;2022-12-18T07:46:21;1.70;;;1.60;;
15899;SDS011;8048;50.644;6.184;2022-12-18T07:48:47;2.60;;;2.33;;
15899;SDS011;8048;50.644;6.184;2022-12-18T07:51:13;1.87;;;1.73;;
15899;SDS011;8048;50.644;6.184;2022-12-18T07:53:39;1.90;;;1.60;;
15899;SDS011;8048;50.644;6.184;2022-12-18T07:56:06;2.75;;;2.22;;
15899;SDS011;8048;50.644;6.184;2022-12-18T07:58:33;3.45;;;2.28;;
15899;SDS011;8048;50.644;6.184;2022-12-18T08:01:06;2.53;;;2.33;;
15899;SDS011;8048;50.644;6.184;2022-12-18T08:03:34;3.20;;;2.08;;
15899;SDS011;8048;50.644;6.184;2022-12-18T08:06:04;1.92;;;1.83;;
15899;SDS011;8048;50.644;6.184;2022-12-18T08:08:31;1.50;;;1.40;;
15899;SDS011;8048;50.644;6.184;2022-12-18T08:10:57;1.93;;;1.77;;
15899;SDS011;8048;50.644;6.184;2022-12-18T08:13:23;1.58;;;1.48;;
15899;SDS011;8048;50.644;6.184;2022-12-18T08:16:02;3.57;;;1.77;;
15899;SDS011;8048;50.644;6.184;2022-12-18T08:18:29;3.70;;;1.95;;
15899;SDS011;8048;50.644;6.184;2022-12-18T08:20:56;2.10;;;1.67;;
15899;SDS011;8048;50.644;6.184;2022-12-18T08:23:22;1.83;;;1.73;;
15899;SDS011;8048;50.644;6.184;2022-12-18T08:25:47;3.43;;;1.70;;
15899;SDS011;8048;50.644;6.184;2022-12-18T08:28:13;1.83;;;1.73;;
15899;SDS011;8048;50.644;6.184;2022-12-18T08:30:41;1.45;;;1.35;;
15899;SDS011;8048;50.644;6.184;2022-12-18T08:33:07;2.17;;;1.73;;
15899;SDS011;8048;50.644;6.184;2022-12-18T08:35:35;2.40;;;1.20;;
15899;SDS011;8048;50.644;6.184;2022-12-18T08:38:02;1.80;;;1.70;;
15899;SDS011;8048;50.644;6.184;2022-12-18T08:40:28;1.70;;;1.48;;
15899;SDS011;8048;50.644;6.184;2022-12-18T08:42:53;2.03;;;1.30;;
15899;SDS011;8048;50.644;6.184;2022-12-18T08:45:38;2.03;;;1.92;;
15899;SDS011;8048;50.644;6.184;2022-12-18T08:48:03;2.23;;;2.03;;
15899;SDS011;8048;50.644;6.184;2022-12-18T08:50:29;4.00;;;3.03;;
15899;SDS011;8048;50.644;6.184;2022-12-18T08:52:55;1.90;;;1.80;;
15899;SDS011;8048;50.644;6.184;2022-12-18T08:55:20;1.50;;;1.40;;
15899;SDS011;8048;50.644;6.184;2022-12-18T08:57:48;1.80;;;1.70;;
15899;SDS011;8048;50.644;6.184;2022-12-18T09:00:14;2.00;;;1.90;;
15899;SDS011;8048;50.644;6.184;2022-12-18T09:02:40;2.03;;;1.93;;
15899;SDS011;8048;50.644;6.184;2022-12-18T09:05:05;3.80;;;2.37;;
15899;SDS011;8048;50.644;6.184;2022-12-18T09:07:31;2.10;;;2.00;;
15899;SDS011;8048;50.644;6.184;2022-12-18T09:09:57;2.83;;;2.43;;
15899;SDS011;8048;50.644;6.184;2022-12-18T09:12:22;2.00;;;1.83;;
15899;SDS011;8048;50.644;6.184;2022-12-18T09:14:48;2.20;;;2.10;;
15899;SDS011;8048;50.644;6.184;2022-12-18T09:17:13;4.33;;;3.80;;
15899;SDS011;8048;50.644;6.184;2022-12-18T09:19:39;2.43;;;2.23;;
15899;SDS011;8048;50.644;6.184;2022-12-18T09:22:04;3.17;;;2.97;;
15899;SDS011;8048;50.644;6.184;2022-12-18T09:24:30;2.63;;;2.43;;
15899;SDS011;8048;50.644;6.184;2022-12-18T09:26:56;2.10;;;2.00;;
15899;SDS011;8048;50.644;6.184;2022-12-18T09:29:21;1.80;;;1.70;;
15899;SDS011;8048;50.644;6.184;2022-12-18T09:31:47;2.40;;;1.90;;
15899;SDS011;8048;50.644;6.184;2022-12-18T09:34:12;2.50;;;2.30;;
15899;SDS011;8048;50.644;6.184;2022-12-18T09:36:38;3.83;;;2.90;;
15899;SDS011;8048;50.644;6.184;2022-12-18T09:39:04;3.43;;;2.77;;
15899;SDS011;8048;50.644;6.184;2022-12-18T09:44:22;1.83;;;1.73;;
15899;SDS011;8048;50.644;6.184;2022-12-18T09:49:34;2.17;;;1.97;;
15899;SDS011;8048;50.644;6.184;2022-12-18T09:52:19;2.63;;;2.43;;
15899;SDS011;8048;50.644;6.184;2022-12-18T09:55:05;2.07;;;1.87;;
15899;SDS011;8048;50.644;6.184;2022-12-18T09:57:57;3.97;;;2.17;;
15899;SDS011;8048;50.644;6.184;2022-12-18T10:00:31;5.80;;;2.37;;
15899;SDS011;8048;50.644;6.184;2022-12-18T10:03:01;2.47;;;2.27;;
15899;SDS011;8048;50.644;6.184;2022-12-18T10:05:35;4.40;;;1.97;;
15899;SDS011;8048;50.644;6.184;2022-12-18T10:10:51;2.63;;;2.43;;
15899;SDS011;8048;50.644;6.184;2022-12-18T10:21:01;2.50;;;2.30;;
15899;SDS011;8048;50.644;6.184;2022-12-18T10:23:35;3.30;;;2.30;;
15899;SDS011;8048;50.644;6.184;2022-12-18T10:26:12;2.03;;;1.90;;
15899;SDS011;8048;50.644;6.184;2022-12-18T10:28:38;2.27;;;2.07;;
15899;SDS011;8048;50.644;6.184;2022-12-18T10:31:06;2.37;;;2.07;;
15899;SDS011;8048;50.644;6.184;2022-12-18T10:33:42;3.73;;;3.30;;
15899;SDS011;8048;50.644;6.184;2022-12-18T10:36:08;2.50;;;2.10;;
15899;SDS011;8048;50.644;6.184;2022-12-18T10:38:33;2.17;;;1.97;;
15899;SDS011;8048;50.644;6.184;2022-12-18T10:41:03;1.83;;;1.73;;
15899;SDS011;8048;50.644;6.184;2022-12-18T10:43:47;2.37;;;2.10;;
15899;SDS011;8048;50.644;6.184;2022-12-18T10:46:16;3.07;;;2.20;;
15899;SDS011;8048;50.644;6.184;2022-12-18T10:51:24;2.23;;;2.03;;
15899;SDS011;8048;50.644;6.184;2022-12-18T10:56:30;2.90;;;2.70;;
15899;SDS011;8048;50.644;6.184;2022-12-18T10:59:02;2.00;;;1.90;;
15899;SDS011;8048;50.644;6.184;2022-12-18T11:04:50;1.70;;;1.60;;
15899;SDS011;8048;50.644;6.184;2022-12-18T11:07:16;2.10;;;1.90;;
15899;SDS011;8048;50.644;6.184;2022-12-18T11:09:41;2.37;;;2.20;;
15899;SDS011;8048;50.644;6.184;2022-12-18T11:12:18;2.40;;;2.20;;
15899;SDS011;8048;50.644;6.184;2022-12-18T11:14:51;1.90;;;1.80;;
15899;SDS011;8048;50.644;6.184;2022-12-18T11:17:28;2.30;;;2.10;;
15899;SDS011;8048;50.644;6.184;2022-12-18T11:19:57;4.90;;;2.13;;
15899;SDS011;8048;50.644;6.184;2022-12-18T11:22:31;2.90;;;2.70;;
15899;SDS011;8048;50.644;6.184;2022-12-18T11:24:59;3.00;;;2.67;;
15899;SDS011;8048;50.644;6.184;2022-12-18T11:27:40;3.40;;;3.10;;
15899;SDS011;8048;50.644;6.184;2022-12-18T11:30:22;3.27;;;2.97;;
15899;SDS011;8048;50.644;6.184;2022-12-18T11:33:06;2.70;;;2.50;;
15899;SDS011;8048;50.644;6.184;2022-12-18T11:41:02;3.13;;;2.87;;
15899;SDS011;8048;50.644;6.184;2022-12-18T11:43:37;2.90;;;2.70;;
15899;SDS011;8048;50.644;6.184;2022-12-18T11:46:07;2.70;;;2.50;;
15899;SDS011;8048;50.644;6.184;2022-12-18T11:48:48;2.50;;;2.30;;
15899;SDS011;8048;50.644;6.184;2022-12-18T11:51:22;3.20;;;2.80;;
15899;SDS011;8048;50.644;6.184;2022-12-18T11:54:00;3.77;;;3.47;;
15899;SDS011;8048;50.644;6.184;2022-12-18T12:04:37;2.17;;;2.00;;
15899;SDS011;8048;50.644;6.184;2022-12-18T12:10:12;3.33;;;3.00;;
15899;SDS011;8048;50.644;6.184;2022-12-18T12:18:51;3.77;;;2.67;;
15899;SDS011;8048;50.644;6.184;2022-12-18T12:21:41;3.50;;;2.70;;
15899;SDS011;8048;50.644;6.184;2022-12-18T12:27:24;5.63;;;3.63;;
15899;SDS011;8048;50.644;6.184;2022-12-18T12:30:08;4.73;;;3.30;;
15899;SDS011;8048;50.644;6.184;2022-12-18T12:33:05;3.30;;;2.97;;
15899;SDS011;8048;50.644;6.184;2022-12-18T12:38:56;4.10;;;3.17;;
15899;SDS011;8048;50.644;6.184;2022-12-18T12:41:26;2.70;;;2.50;;
15899;SDS011;8048;50.644;6.184;2022-12-18T12:44:23;3.33;;;3.10;;
15899;SDS011;8048;50.644;6.184;2022-12-18T12:46:56;4.40;;;2.90;;
15899;SDS011;8048;50.644;6.184;2022-12-18T12:49:28;3.13;;;2.73;;
15899;SDS011;8048;50.644;6.184;2022-12-18T12:51:59;5.20;;;3.10;;
15899;SDS011;8048;50.644;6.184;2022-12-18T12:54:31;4.60;;;2.90;;
15899;SDS011;8048;50.644;6.184;2022-12-18T13:00:04;3.77;;;3.00;;
15899;SDS011;8048;50.644;6.184;2022-12-18T13:05:19;4.83;;;4.07;;
15899;SDS011;8048;50.644;6.184;2022-12-18T13:08:05;4.73;;;3.17;;
15899;SDS011;8048;50.644;6.184;2022-12-18T13:10:35;9.30;;;7.93;;
15899;SDS011;8048;50.644;6.184;2022-12-18T13:13:10;4.03;;;3.70;;
15899;SDS011;8048;50.644;6.184;2022-12-18T13:15:38;4.73;;;3.30;;
15899;SDS011;8048;50.644;6.184;2022-12-18T13:20:38;3.40;;;3.10;;
15899;SDS011;8048;50.644;6.184;2022-12-18T13:23:20;6.70;;;4.33;;
15899;SDS011;8048;50.644;6.184;2022-12-18T13:25:56;3.73;;;3.00;;
15899;SDS011;8048;50.644;6.184;2022-12-18T13:31:57;3.93;;;3.40;;
15899;SDS011;8048;50.644;6.184;2022-12-18T13:34:15;4.13;;;3.83;;
15899;SDS011;8048;50.644;6.184;2022-12-18T13:36:51;5.20;;;4.17;;
15899;SDS011;8048;50.644;6.184;2022-12-18T13:41:47;4.87;;;4.47;;
15899;SDS011;8048;50.644;6.184;2022-12-18T13:44:34;4.83;;;4.03;;
15899;SDS011;8048;50.644;6.184;2022-12-18T13:47:01;5.80;;;4.37;;
15899;SDS011;8048;50.644;6.184;2022-12-18T13:52:17;6.37;;;3.53;;
15899;SDS011;8048;50.644;6.184;2022-12-18T13:54:56;4.57;;;4.17;;
15899;SDS011;8048;50.644;6.184;2022-12-18T13:57:28;7.17;;;3.90;;
15899;SDS011;8048;50.644;6.184;2022-12-18T13:59:55;4.20;;;3.70;;
15899;SDS011;8048;50.644;6.184;2022-12-18T14:02:23;6.17;;;4.40;;
15899;SDS011;8048;50.644;6.184;2022-12-18T14:04:50;3.70;;;2.73;;
15899;SDS011;8048;50.644;6.184;2022-12-18T14:07:17;5.07;;;4.00;;
15899;SDS011;8048;50.644;6.184;2022-12-18T14:09:51;5.20;;;4.70;;
15899;SDS011;8048;50.644;6.184;2022-12-18T14:12:25;5.40;;;4.43;;
15899;SDS011;8048;50.644;6.184;2022-12-18T14:17:54;10.03;;;5.10;;
15899;SDS011;8048;50.644;6.184;2022-12-18T14:20:27;8.20;;;5.20;;
15899;SDS011;8048;50.644;6.184;2022-12-18T14:22:56;4.40;;;3.90;;
15899;SDS011;8048;50.644;6.184;2022-12-18T14:25:23;10.25;;;4.93;;
15899;SDS011;8048;50.644;6.184;2022-12-18T14:33:06;4.83;;;4.33;;
15899;SDS011;8048;50.644;6.184;2022-12-18T14:35:40;7.40;;;4.88;;
15899;SDS011;8048;50.644;6.184;2022-12-18T14:38:29;5.73;;;4.77;;
15899;SDS011;8048;50.644;6.184;2022-12-18T14:41:02;7.20;;;3.27;;
15899;SDS011;8048;50.644;6.184;2022-12-18T14:43:39;4.17;;;3.80;;
15899;SDS011;8048;50.644;6.184;2022-12-18T14:46:49;5.23;;;4.10;;
15899;SDS011;8048;50.644;6.184;2022-12-18T14:48:59;10.33;;;4.83;;
15899;SDS011;8048;50.644;6.184;2022-12-18T14:51:48;5.53;;;4.85;;
15899;SDS011;8048;50.644;6.184;2022-12-18T14:54:28;5.63;;;5.13;;
15899;SDS011;8048;50.644;6.184;2022-12-18T14:56:59;4.77;;;3.47;;
15899;SDS011;8048;50.644;6.184;2022-12-18T14:59:27;8.63;;;6.35;;
15899;SDS011;8048;50.644;6.184;2022-12-18T15:04:27;4.78;;;4.28;;
15899;SDS011;8048;50.644;6.184;2022-12-18T15:07:04;10.60;;;6.20;;
15899;SDS011;8048;50.644;6.184;2022-12-18T15:10:08;7.63;;;5.18;;
15899;SDS011;8048;50.644;6.184;2022-12-18T15:15:03;8.75;;;4.05;;
15899;SDS011;8048;50.644;6.184;2022-12-18T15:17:29;5.85;;;4.15;;
15899;SDS011;8048;50.644;6.184;2022-12-18T15:19:59;7.43;;;5.10;;
15899;SDS011;8048;50.644;6.184;2022-12-18T15:22:28;5.13;;;4.30;;
15899;SDS011;8048;50.644;6.184;2022-12-18T15:24:55;6.32;;;5.32;;
15899;SDS011;8048;50.644;6.184;2022-12-18T15:27:35;9.70;;;5.80;;
15899;SDS011;8048;50.644;6.184;2022-12-18T15:32:35;8.57;;;5.32;;
15899;SDS011;8048;50.644;6.184;2022-12-18T15:37:34;10.32;;;5.68;;
15899;SDS011;8048;50.644;6.184;2022-12-18T15:39:59;11.63;;;7.03;;
15899;SDS011;8048;50.644;6.184;2022-12-18T15:42:25;12.90;;;6.53;;
15899;SDS011;8048;50.644;6.184;2022-12-18T15:45:12;7.15;;;4.47;;
15899;SDS011;8048;50.644;6.184;2022-12-18T15:47:38;5.78;;;5.18;;
15899;SDS011;8048;50.644;6.184;2022-12-18T15:50:04;6.67;;;4.93;;
15899;SDS011;8048;50.644;6.184;2022-12-18T15:52:31;6.10;;;5.50;;
15899;SDS011;8048;50.644;6.184;2022-12-18T15:55:10;8.60;;;6.05;;
15899;SDS011;8048;50.644;6.184;2022-12-18T15:57:56;8.13;;;4.75;;
15899;SDS011;8048;50.644;6.184;2022-12-18T16:00:21;7.13;;;5.07;;
15899;SDS011;8048;50.644;6.184;2022-12-18T16:02:47;7.10;;;4.40;;
15899;SDS011;8048;50.644;6.184;2022-12-18T16:05:16;10.03;;;6.73;;
15899;SDS011;8048;50.644;6.184;2022-12-18T16:07:43;6.20;;;5.35;;
15899;SDS011;8048;50.644;6.184;2022-12-18T16:10:09;8.00;;;6.22;;
15899;SDS011;8048;50.644;6.184;2022-12-18T16:12:36;7.00;;;5.05;;
15899;SDS011;8048;50.644;6.184;2022-12-18T16:15:02;6.90;;;5.43;;
15899;SDS011;8048;50.644;6.184;2022-12-18T16:17:29;8.55;;;5.40;;
15899;SDS011;8048;50.644;6.184;2022-12-18T16:19:54;7.30;;;4.90;;
15899;SDS011;8048;50.644;6.184;2022-12-18T16:22:24;7.43;;;4.93;;
15899;SDS011;8048;50.644;6.184;2022-12-18T16:24:52;7.45;;;6.75;;
15899;SDS011;8048;50.644;6.184;2022-12-18T16:27:19;6.45;;;5.07;;
15899;SDS011;8048;50.644;6.184;2022-12-18T16:29:45;8.90;;;5.78;;
15899;SDS011;8048;50.644;6.184;2022-12-18T16:32:12;8.43;;;6.20;;
15899;SDS011;8048;50.644;6.184;2022-12-18T16:34:40;8.43;;;5.40;;
15899;SDS011;8048;50.644;6.184;2022-12-18T16:37:07;6.35;;;4.70;;
15899;SDS011;8048;50.644;6.184;2022-12-18T16:39:34;9.63;;;6.05;;
15899;SDS011;8048;50.644;6.184;2022-12-18T16:42:02;6.35;;;5.75;;
15899;SDS011;8048;50.644;6.184;2022-12-18T16:44:29;7.97;;;5.72;;
15899;SDS011;8048;50.644;6.184;2022-12-18T16:46:54;6.80;;;5.30;;
15899;SDS011;8048;50.644;6.184;2022-12-18T16:49:26;8.52;;;7.15;;
15899;SDS011;8048;50.644;6.184;2022-12-18T16:51:52;9.80;;;6.00;;
15899;SDS011;8048;50.644;6.184;2022-12-18T16:54:18;10.03;;;5.90;;
15899;SDS011;8048;50.644;6.184;2022-12-18T16:56:44;7.40;;;5.70;;
15899;SDS011;8048;50.644;6.184;2022-12-18T16:59:10;9.60;;;5.65;;
15899;SDS011;8048;50.644;6.184;2022-12-18T17:01:37;9.48;;;6.03;;
15899;SDS011;8048;50.644;6.184;2022-12-18T17:04:04;7.97;;;6.57;;
15899;SDS011;8048;50.644;6.184;2022-12-18T17:06:31;8.25;;;5.63;;
15899;SDS011;8048;50.644;6.184;2022-12-18T17:08:58;9.93;;;7.40;;